createdAt,value
2023-03-06T00:01:39.396Z,6
2023-03-06T00:03:45.681Z,10.7
2023-03-06T00:05:54.807Z,8.7
2023-03-06T00:12:13.383Z,19.7
2023-03-06T00:14:19.593Z,6.2
2023-03-06T00:16:25.893Z,7.4
2023-03-06T00:18:31.997Z,8.2
2023-03-06T00:20:41.141Z,11.1
2023-03-06T00:24:53.533Z,8.6
2023-03-06T00:26:59.823Z,7.7
2023-03-06T00:31:12.200Z,9.1
2023-03-06T00:33:18.378Z,10.4
2023-03-06T00:39:39.864Z,7.6
2023-03-06T00:42:03.929Z,7.7
2023-03-06T00:44:10.131Z,5.2
2023-03-06T00:46:16.345Z,9.7
2023-03-06T00:48:25.403Z,15.2
2023-03-06T00:50:31.606Z,12.5
2023-03-06T00:52:37.826Z,10.6
2023-03-06T00:54:43.985Z,16.3
2023-03-06T01:03:11.685Z,9.7
2023-03-06T01:05:17.847Z,12.2
2023-03-06T01:07:24.024Z,10.9
2023-03-06T01:09:30.252Z,13.9
2023-03-06T01:11:36.430Z,9
2023-03-06T01:13:42.593Z,7.9
2023-03-06T01:17:57.987Z,15.1
2023-03-06T01:20:04.066Z,13.7
2023-03-06T01:22:10.232Z,7
2023-03-06T01:28:28.798Z,11.5
2023-03-06T01:32:45.662Z,17.3
2023-03-06T01:34:51.798Z,13.1
2023-03-06T01:36:57.968Z,14.2
2023-03-06T01:40:08.701Z,18.2
2023-03-06T01:50:42.636Z,30.1
2023-03-06T01:52:48.788Z,16.7
2023-03-06T01:54:54.976Z,11.3
2023-03-06T02:03:22.621Z,12.7
2023-03-06T02:05:28.803Z,12.4
2023-03-06T02:09:41.196Z,10.9
2023-03-06T02:18:08.826Z,13.5
2023-03-06T02:22:21.214Z,21.9
2023-03-06T02:28:39.716Z,16
2023-03-06T02:30:48.835Z,15.8
2023-03-06T02:32:54.979Z,19.1
2023-03-06T02:36:05.692Z,22.7
2023-03-06T02:38:11.857Z,13.2
2023-03-06T02:42:24.214Z,15.1
2023-03-06T02:44:33.292Z,19.2
2023-03-06T02:48:45.647Z,20.2
2023-03-06T02:50:51.866Z,21
2023-03-06T02:52:57.997Z,15.6
2023-03-06T02:59:19.437Z,17.5
2023-03-06T03:01:25.730Z,13.6
2023-03-06T03:07:44.177Z,15.2
2023-03-06T03:09:50.383Z,22.2
2023-03-06T03:11:56.561Z,16.8
2023-03-06T03:16:11.910Z,18
2023-03-06T03:18:18.021Z,18.9
2023-03-06T03:26:42.784Z,19.2
2023-03-06T03:34:08.830Z,20.2
2023-03-06T03:36:15.007Z,31.4
2023-03-06T03:38:21.193Z,16.5
2023-03-06T03:40:27.408Z,35.7
2023-03-06T03:42:36.504Z,33.1
2023-03-06T03:44:42.744Z,27
2023-03-06T03:46:48.922Z,26.7
2023-03-06T03:48:55.102Z,25.1
2023-03-06T03:51:01.281Z,24.4
2023-03-06T03:55:13.669Z,28
2023-03-06T03:59:28.982Z,40.7
2023-03-06T04:01:35.196Z,29.9
2023-03-06T04:03:41.384Z,35.5
2023-03-06T04:05:47.573Z,46.4
2023-03-06T04:07:53.974Z,28.3
2023-03-06T04:09:59.996Z,29.5
2023-03-06T04:12:09.144Z,27.8
2023-03-06T04:14:15.306Z,28.2
2023-03-06T04:16:21.542Z,25.3
2023-03-06T04:18:27.684Z,26.8
2023-03-06T04:20:33.897Z,29.1
2023-03-06T04:22:40.098Z,25.8
2023-03-06T04:24:46.300Z,27.5
2023-03-06T04:33:31.712Z,30.9
2023-03-06T04:35:38.023Z,26.5
2023-03-06T04:39:53.245Z,30.8
2023-03-06T04:41:59.447Z,29.5
2023-03-06T04:44:05.663Z,27.8
2023-03-06T04:46:11.864Z,25.2
2023-03-06T04:54:39.647Z,31.9
2023-03-06T04:58:52.085Z,41.4
2023-03-06T05:03:04.483Z,37.5
2023-03-06T05:05:10.673Z,37.7
2023-03-06T05:09:26.026Z,42.9
2023-03-06T05:11:32.223Z,37.1
2023-03-06T05:19:57.044Z,43.9
2023-03-06T05:22:03.270Z,44.2
2023-03-06T05:24:12.332Z,51.7
2023-03-06T05:28:24.743Z,33.8
2023-03-06T05:29:29.305Z,41.4
2023-03-06T05:33:41.711Z,31.9
2023-03-06T05:37:57.004Z,41.8
2023-03-06T05:40:03.243Z,40.4
2023-03-06T05:42:09.420Z,34.4
2023-03-06T05:46:21.872Z,45.6
2023-03-06T05:48:28.012Z,46.6
2023-03-06T05:50:34.205Z,45.4
2023-03-06T05:54:49.531Z,49.9
2023-03-06T05:56:55.701Z,42.1
2023-03-06T05:59:01.902Z,46.9
2023-03-06T06:01:08.116Z,42.6
2023-03-06T06:03:14.328Z,41.7
2023-03-06T06:05:20.522Z,54.7
2023-03-06T06:07:29.602Z,49
2023-03-06T06:11:42.067Z,40.2
2023-03-06T06:18:00.627Z,39.6
2023-03-06T06:22:15.932Z,52.8
2023-03-06T06:24:22.143Z,40.9
2023-03-06T06:26:28.365Z,48.2
2023-03-06T06:27:32.929Z,43
2023-03-06T06:29:39.123Z,41.3
2023-03-06T06:31:45.327Z,37.7
2023-03-06T06:33:51.542Z,55.1
2023-03-06T06:36:00.651Z,32.9
2023-03-06T06:38:06.839Z,36
2023-03-06T06:40:13.079Z,24
2023-03-06T06:42:30.997Z,27.8
2023-03-06T06:44:25.488Z,21.9
2023-03-06T06:47:19.215Z,26.9
2023-03-06T06:48:37.931Z,24.6
2023-03-06T06:50:47.076Z,30.7
2023-03-06T06:52:53.245Z,22.9
2023-03-06T06:54:59.460Z,19.1
2023-03-06T06:57:05.686Z,21
2023-03-06T06:59:17.028Z,19.7
2023-03-06T07:03:24.339Z,22.2
2023-03-06T07:07:39.744Z,13.4
2023-03-06T07:09:45.892Z,40.2
2023-03-06T07:11:52.122Z,17.7
2023-03-06T07:13:58.379Z,14.3
2023-03-06T07:16:04.634Z,23.9
2023-03-06T07:18:10.817Z,12.3
2023-03-06T07:20:19.961Z,11.4
2023-03-06T07:22:26.171Z,10
2023-03-06T07:24:32.404Z,11.7
2023-03-06T07:27:46.971Z,7.2
2023-03-06T07:29:49.426Z,7.5
2023-03-06T07:31:55.711Z,8.3
2023-03-06T07:36:13.847Z,4.9
2023-03-06T07:38:18.790Z,5.4
2023-03-06T07:40:25.044Z,5.8
2023-03-06T07:42:31.238Z,5.7
2023-03-06T07:44:37.581Z,15.1
2023-03-06T07:48:52.871Z,6.5
2023-03-06T07:50:59.121Z,7.1
2023-03-06T07:53:05.353Z,14.7
2023-03-06T07:57:17.864Z,6.2
2023-03-06T07:59:24.106Z,6
2023-03-06T08:01:30.242Z,6.8
2023-03-06T08:03:39.487Z,9.7
2023-03-06T08:07:51.885Z,3.4
2023-03-06T08:09:58.175Z,2.8
2023-03-06T08:12:04.405Z,4
2023-03-06T08:14:10.651Z,7
2023-03-06T08:16:17.029Z,4.6
2023-03-06T08:18:26.143Z,10.4
2023-03-06T08:22:38.625Z,4
2023-03-06T08:25:02.514Z,3.7
2023-03-06T08:27:08.719Z,6.4
2023-03-06T08:29:14.887Z,2.6
2023-03-06T08:33:30.242Z,2.6
2023-03-06T08:35:36.513Z,1.9
2023-03-06T08:41:55.319Z,2.9
2023-03-06T08:44:01.500Z,7.4
2023-03-06T08:46:10.546Z,6.8
2023-03-06T08:48:16.732Z,3.3
2023-03-06T08:52:29.067Z,2.5
2023-03-06T08:54:35.267Z,2
2023-03-06T09:05:09.039Z,2.1
2023-03-06T09:07:15.217Z,2.4
2023-03-06T09:09:21.436Z,2.1
2023-03-06T09:11:27.654Z,5.4
2023-03-06T09:13:33.817Z,2.4
2023-03-06T09:15:42.831Z,5.1
2023-03-06T09:19:55.230Z,2.1
2023-03-06T09:23:05.929Z,8.6
2023-03-06T09:27:18.334Z,2.3
2023-03-06T09:29:27.376Z,3.8
2023-03-06T09:31:33.562Z,3.5
2023-03-06T09:33:39.774Z,8.6
2023-03-06T09:35:46.000Z,2.1
2023-03-06T09:37:52.177Z,3.7
2023-03-06T09:39:58.385Z,4.5
2023-03-06T09:42:04.593Z,2.8
2023-03-06T09:44:13.606Z,2.7
2023-03-06T09:46:19.966Z,2.1
2023-03-06T09:48:26.097Z,2.4
2023-03-06T09:52:38.602Z,2.2
2023-03-06T09:54:44.735Z,1.7
2023-03-06T09:56:50.947Z,1.5
2023-03-06T09:59:00.118Z,1.5
2023-03-06T10:01:06.179Z,5.4
2023-03-06T10:03:12.505Z,1.5
2023-03-06T10:09:31.075Z,7.9
2023-03-06T10:11:37.247Z,1.7
2023-03-06T10:13:46.264Z,5.1
2023-03-06T10:15:52.640Z,1.9
2023-03-06T10:17:58.704Z,3.3
2023-03-06T10:21:18.657Z,4
2023-03-06T10:29:38.535Z,4.3
2023-03-06T10:33:49.586Z,1.6
2023-03-06T10:35:55.947Z,2.3
2023-03-06T10:38:02.050Z,1.9
2023-03-06T10:40:08.579Z,2.1
2023-03-06T10:42:17.348Z,1.9
2023-03-06T10:44:23.655Z,1.6
2023-03-06T10:46:29.921Z,1.7
2023-03-06T10:48:36.135Z,2.2
2023-03-06T10:50:42.325Z,3.4
2023-03-06T10:52:48.598Z,3.6
2023-03-06T10:54:54.856Z,1.8
2023-03-06T10:57:03.927Z,10.8
2023-03-06T10:59:10.190Z,4.3
2023-03-06T11:01:16.479Z,1.6
2023-03-06T11:03:22.720Z,2.8
2023-03-06T11:05:29.000Z,2.5
2023-03-06T11:07:35.270Z,4.3
2023-03-06T11:09:41.513Z,1.9
2023-03-06T11:11:50.585Z,1.7
2023-03-06T11:13:56.855Z,3.2
2023-03-06T11:17:07.638Z,2.6
2023-03-06T11:19:13.908Z,1.5
2023-03-06T11:21:20.151Z,5.5
2023-03-06T11:23:26.439Z,4.2
2023-03-06T11:25:35.525Z,2
2023-03-06T11:27:42.602Z,1.9
2023-03-06T11:29:48.055Z,1.2
2023-03-06T11:31:54.301Z,5.1
2023-03-06T11:34:00.548Z,1.1
2023-03-06T11:36:06.811Z,1.5
2023-03-06T11:38:13.098Z,2.4
2023-03-06T11:42:28.398Z,4.1
2023-03-06T11:44:34.659Z,1
2023-03-06T11:48:47.165Z,4.2
2023-03-06T11:55:08.853Z,2.3
2023-03-06T11:57:15.031Z,2.9
2023-03-06T11:59:21.291Z,1.4
2023-03-06T12:01:27.571Z,1.7
2023-03-06T12:03:33.835Z,1.7
2023-03-06T12:05:40.168Z,2.6
2023-03-06T12:07:46.388Z,1
2023-03-06T12:09:55.450Z,16.3
2023-03-06T12:12:01.724Z,8.5
2023-03-06T12:14:08.862Z,2.7
2023-03-06T12:18:38.004Z,1.6
2023-03-06T12:22:57.928Z,1.8
2023-03-06T12:24:59.628Z,4.7
2023-03-06T12:27:05.905Z,1.5
2023-03-06T12:29:12.172Z,3.6
2023-03-06T12:37:40.081Z,5.1
2023-03-06T12:39:46.336Z,3.9
2023-03-06T12:41:52.609Z,4.1
2023-03-06T12:43:58.869Z,5.5
2023-03-06T12:50:17.680Z,0.7
2023-03-06T12:52:30.378Z,0.7
2023-03-06T12:54:33.031Z,1.8
2023-03-06T12:56:39.300Z,2.9
2023-03-06T12:58:45.592Z,1.2
2023-03-06T13:00:55.332Z,3.9
2023-03-06T13:02:58.153Z,1
2023-03-06T13:07:13.532Z,7.3
2023-03-06T13:09:19.801Z,2.1
2023-03-06T13:18:49.454Z,0.9
2023-03-06T13:20:58.569Z,1
2023-03-06T13:23:04.838Z,1.1
2023-03-06T13:25:11.109Z,1.5
2023-03-06T13:27:17.396Z,5.4
2023-03-06T13:29:23.686Z,2.4
2023-03-06T13:33:36.224Z,4.2
2023-03-06T13:37:52.098Z,1.2
2023-03-06T13:42:06.192Z,6
2023-03-06T13:48:41.646Z,1.9
2023-03-06T13:50:35.624Z,4.9
2023-03-06T13:54:48.151Z,8.4
2023-03-06T13:56:55.272Z,2.9
2023-03-06T13:59:00.705Z,5.3
2023-03-06T14:01:06.988Z,3.5
2023-03-06T14:05:22.406Z,3.1
2023-03-06T14:07:28.592Z,3.4
2023-03-06T14:09:34.857Z,3.7
2023-03-06T14:14:51.942Z,4
2023-03-06T14:16:58.223Z,6.6
2023-03-06T14:19:07.710Z,4.8
2023-03-06T14:21:13.576Z,4.3
2023-03-06T14:23:19.806Z,5.2
2023-03-06T14:25:26.079Z,15.3
2023-03-06T14:27:32.450Z,7.7
2023-03-06T14:29:38.662Z,3.9
2023-03-06T14:31:44.907Z,4.4
2023-03-06T14:33:53.972Z,6.6
2023-03-06T14:36:00.386Z,6.5
2023-03-06T14:38:06.591Z,4.3
2023-03-06T14:40:12.848Z,4
2023-03-06T14:46:31.654Z,8.9
2023-03-06T14:48:40.721Z,4.5
2023-03-06T14:50:46.938Z,4.7
2023-03-06T14:52:53.215Z,5.2
2023-03-06T14:54:59.480Z,6.7
2023-03-06T15:08:44.398Z,10
2023-03-06T15:10:50.652Z,6.6
2023-03-06T15:12:56.910Z,5.1
2023-03-06T15:15:03.172Z,11.8
2023-03-06T15:17:12.236Z,9.7
2023-03-06T15:19:18.469Z,6.7
2023-03-06T15:21:24.717Z,12.9
2023-03-06T15:23:30.954Z,7.3
2023-03-06T15:29:49.700Z,7.9
2023-03-06T15:31:58.781Z,13.8
2023-03-06T15:34:04.940Z,8.9
2023-03-06T15:38:17.384Z,15
2023-03-06T15:48:51.286Z,22
2023-03-06T15:50:57.524Z,17
2023-03-06T15:53:03.656Z,17.1
2023-03-06T15:55:09.842Z,13.7
2023-03-06T15:59:22.229Z,20.9
2023-03-06T16:01:31.218Z,18.9
2023-03-06T16:03:37.486Z,17.3
2023-03-06T16:14:24.894Z,18.8
2023-03-06T16:16:31.098Z,25.6
2023-03-06T16:18:37.279Z,19.1
2023-03-06T16:31:17.603Z,16.7
2023-03-06T16:37:36.331Z,12.5
2023-03-06T16:41:48.785Z,13.3
2023-03-06T16:43:57.883Z,16.8
2023-03-06T16:46:04.226Z,12.3
2023-03-06T16:48:10.443Z,14.6
2023-03-06T16:50:16.743Z,14.4
2023-03-06T16:54:29.196Z,20.9
2023-03-06T16:58:44.467Z,16.8
2023-03-06T17:00:50.743Z,15.6
2023-03-06T17:02:57.039Z,14.3
2023-03-06T17:04:01.527Z,16.8
2023-03-06T17:06:07.825Z,18.1
2023-03-06T17:08:14.084Z,18.4
2023-03-06T17:10:20.353Z,15.8
2023-03-06T17:12:29.537Z,26.4
2023-03-06T17:14:35.811Z,20.3
2023-03-06T17:16:42.096Z,17.5
2023-03-06T17:18:48.285Z,25.5
2023-03-06T17:23:00.736Z,19.1
2023-03-06T17:25:06.893Z,18.4
2023-03-06T17:27:15.974Z,24.8
2023-03-06T17:29:22.244Z,24.6
2023-03-06T17:31:28.608Z,20.6
2023-03-06T17:37:47.249Z,30.8
2023-03-06T17:42:02.706Z,42.8
2023-03-06T17:46:15.324Z,37.1
2023-03-06T17:48:21.502Z,31.9
2023-03-06T17:50:27.756Z,39.4
2023-03-06T17:52:34.059Z,51.5
2023-03-06T17:54:40.295Z,35
2023-03-06T17:56:49.482Z,104.3
2023-03-06T17:58:55.724Z,131.9
2023-03-06T18:02:06.744Z,41.7
2023-03-06T18:06:18.910Z,42.2
2023-03-06T18:08:25.192Z,136.8
2023-03-06T18:10:34.348Z,39.6
2023-03-06T18:12:40.562Z,37.8
2023-03-06T18:14:46.810Z,42.9
2023-03-06T18:16:53.137Z,39.3
2023-03-06T18:18:59.235Z,41.3
2023-03-06T18:21:05.524Z,40.5
2023-03-06T18:23:11.661Z,46.8
2023-03-06T18:27:26.907Z,44
2023-03-06T18:29:33.216Z,44.9
2023-03-06T18:31:39.413Z,54.8
2023-03-06T18:33:45.542Z,49.5
2023-03-06T18:35:51.828Z,43.3
2023-03-06T18:37:58.040Z,48.7
2023-03-06T18:40:07.832Z,58.7
2023-03-06T18:48:32.060Z,81.6
2023-03-06T18:56:59.924Z,55.9
2023-03-06T18:59:06.186Z,65
2023-03-06T19:02:16.940Z,56.3
2023-03-06T19:06:29.461Z,50.2
2023-03-06T19:08:38.641Z,72.2
2023-03-06T19:10:44.925Z,52.3
2023-03-06T19:12:51.174Z,64.4
2023-03-06T19:14:57.430Z,66.7
2023-03-06T19:19:09.963Z,50
2023-03-06T19:21:16.248Z,50.6
2023-03-06T19:25:31.644Z,59.8
2023-03-06T19:27:37.901Z,56.7
2023-03-06T19:31:50.466Z,58.1
2023-03-06T19:33:56.787Z,49.2
2023-03-06T19:38:12.114Z,58.6
2023-03-06T19:40:18.383Z,76.1
2023-03-06T19:42:24.620Z,60.2
2023-03-06T19:44:30.884Z,71.9
2023-03-06T19:46:37.147Z,58.8
2023-03-06T19:48:44.957Z,67.9
2023-03-06T19:50:51.191Z,49.5
2023-03-06T19:53:00.360Z,61.5
2023-03-06T19:55:06.605Z,54.9
2023-03-06T19:57:12.827Z,57.3
2023-03-06T19:59:32.841Z,61.4
2023-03-06T20:01:39.155Z,67.2
2023-03-06T20:03:45.349Z,75.3
2023-03-06T20:05:54.526Z,56.6
2023-03-06T20:08:00.774Z,73.4
2023-03-06T20:10:07.078Z,61.5
2023-03-06T20:12:13.294Z,66.6
2023-03-06T20:14:19.514Z,51.3
2023-03-06T20:18:32.026Z,56
2023-03-06T20:20:41.227Z,70.5
2023-03-06T20:22:47.404Z,83.9
2023-03-06T20:24:53.644Z,50.6
2023-03-06T20:26:59.896Z,51.2
2023-03-06T20:29:06.145Z,50.9
2023-03-06T20:33:18.631Z,55.8
2023-03-06T20:35:27.799Z,67.6
2023-03-06T20:37:34.045Z,61.4
2023-03-06T20:41:46.517Z,58.8
2023-03-06T20:43:52.773Z,50.9
2023-03-06T20:45:59.027Z,53.3
2023-03-06T20:48:05.270Z,84.9
2023-03-06T20:52:20.617Z,57.3
2023-03-06T20:54:26.854Z,59.6
2023-03-06T20:55:31.420Z,69.4
2023-03-06T20:57:37.675Z,55.1
2023-03-06T20:59:43.907Z,77.7
2023-03-06T21:01:50.191Z,65.5
2023-03-06T21:03:59.266Z,76.7
2023-03-06T21:10:18.006Z,65.3
2023-03-06T21:12:24.246Z,68.9
2023-03-06T21:14:30.484Z,63.2
2023-03-06T21:16:36.798Z,63.5
2023-03-06T21:18:45.866Z,69
2023-03-06T21:20:52.093Z,67.1
2023-03-06T21:22:58.346Z,69.8
2023-03-06T21:25:04.606Z,76.3
2023-03-06T21:27:10.848Z,72.4
2023-03-06T21:29:17.086Z,61.6
2023-03-06T21:35:38.750Z,77.7
2023-03-06T21:41:57.466Z,76.8
2023-03-06T21:44:03.719Z,74.9
2023-03-06T21:46:10.017Z,69.7
2023-03-06T21:48:19.131Z,63
2023-03-06T21:50:25.393Z,58.9
2023-03-06T21:52:31.667Z,74.8
2023-03-06T21:53:36.225Z,73.4
2023-03-06T21:57:48.739Z,62.1
2023-03-06T22:02:04.142Z,62.6
2023-03-06T22:04:10.337Z,64.4
2023-03-06T22:06:16.600Z,49.9
2023-03-06T22:08:22.847Z,55.1
2023-03-06T22:10:29.084Z,50.2
2023-03-06T22:12:35.268Z,53.1
2023-03-06T22:14:41.545Z,74.6
2023-03-06T22:16:50.599Z,62.3
2023-03-06T22:18:56.740Z,59.4
2023-03-06T22:21:02.926Z,48.2
2023-03-06T22:23:09.184Z,51
2023-03-06T22:27:21.621Z,48.9
2023-03-06T22:29:27.884Z,60.4
2023-03-06T22:31:38.748Z,67.6
2023-03-06T22:35:49.588Z,45.4
2023-03-06T22:37:55.985Z,36.2
2023-03-06T22:40:02.048Z,35.7
2023-03-06T22:42:08.295Z,32.9
2023-03-06T22:46:23.818Z,45.3
2023-03-06T22:48:30.060Z,43.4
2023-03-06T22:50:36.290Z,39.6
2023-03-06T22:53:47.168Z,43.4
2023-03-06T22:55:53.422Z,34.7
2023-03-06T23:00:08.781Z,40.8
2023-03-06T23:02:15.096Z,34.6
2023-03-06T23:04:21.366Z,35.7
2023-03-06T23:12:46.416Z,34.1
2023-03-06T23:19:08.154Z,32.3
2023-03-06T23:23:20.719Z,29.3
2023-03-06T23:25:27.008Z,30.8
2023-03-06T23:27:33.278Z,31.5
2023-03-06T23:29:42.360Z,26.6
2023-03-06T23:31:48.619Z,24.7
2023-03-06T23:38:07.111Z,21.3
2023-03-06T23:42:19.659Z,17
2023-03-06T23:44:28.839Z,26.2
2023-03-06T23:46:35.172Z,16.9
2023-03-06T23:48:41.393Z,29.8
2023-03-06T23:53:07.519Z,19.1
2023-03-06T23:55:13.700Z,17
2023-03-06T23:57:22.899Z,14
2023-03-06T23:59:29.170Z,20.8
